Tiempo atmosférico en la estación meteorológica de Seira, Huesca (825 m.)



Fecha
DESCASC
Temp. máxima en grados centígrados (hora)
DESCASC
Temp. mínima en grados centígrados (hora)
DESCASC
Temp. media en grados centígrados
DESCASC
Racha de viento máxima en m/sg (hora)
DESCASC
Velocidad máxima media en intervalos de 10 minutos(hora)
DESCASC
Precipitaciones diarias en mm
DESCASC
Precipitaciones de 00:00 a 06:00 en mm
DESCASC
Precipitaciones de 06:00 a 12:00 en mm
DESCASC
Precipitaciones de 12:00 a 18:00 en mm
DESCASC
Precipitaciones de 18:00 a 24:00 en mm
DESCASC
22-01-2020 7.8 (13:40) 2.1 (05:10) 5 4.72 (07:10) 1.39 (11:10) 45.4 12.2 0 12.6 20.6
21-01-2020 8.5 (15:50) 0.9 (00:00) 4.7 5 (07:50) 1.39 (13:40) 0.4 0 0 0.4 0
20-01-2020 8.4 (14:20) -2.6 (08:30) 2.9 9.44 (02:10) 2.22 (01:30) 0 0 0 0 0
19-01-2020 8.6 (13:40) 2.1 (00:00) 5.4 13.61 (17:00) 3.33 (17:00) 1 1 0 0 0
18-01-2020 9.4 (14:50) -2.6 (-00:0) 3.4 5.56 (14:30) 1.67 (14:00) 0 0 0 0 0
17-01-2020 9.8 (12:50) -1.3 (-00:0) 4.3 7.5 (12:20) 3.33 (12:20) 2.6 0.2 0 2.4 0
16-01-2020 11.5 (14:40) -1.7 (-00:0) 4.9 1.94 (06:40) 0.83 (23:20) 0 0 0 0 0
15-01-2020 10.7 (15:20) -3.3 (-00:0) 3.7 2.78 (03:10) 1.11 (14:00) 0 0 0 0 0
14-01-2020 10.8 (16:10) -3.3 (-00:0) 3.8 3.61 (14:30) 1.67 (16:00) 0 0 0 0 0
13-01-2020 9.6 (15:30) -3.9 (-00:0) 2.9 3.33 (15:30) 1.39 (15:30) 0 0 0 0 0
12-01-2020 10.9 (16:10) -4.2 (-00:0) 3.3 4.17 (16:00) 1.67 (16:00) 0 0 0 0 0
11-01-2020 10.1 (15:40) -4 (-00:0) 3.1 3.33 (09:40) 1.39 (01:30) 0 0 0 0 0
10-01-2020 10.9 (14:30) -2.1 (-00:0) 4.4 6.67 (16:00) 2.78 (16:00) 0 0 0 0 0
09-01-2020 11 (14:50) -1.1 (-00:0) 4.9 3.89 (17:10) 1.39 (17:10) 0 0 0 0 0
08-01-2020 12.8 (16:00) -0.7 (-00:0) 6.1 3.89 (15:50) 1.67 (15:50) 0 0 0 0 0
07-01-2020 10.2 (14:20) -2.4 (-00:0) 3.9 1.94 (09:00) 0.83 (08:50) 0 0 0 0 0
06-01-2020 9.7 (15:10) -2.2 (-00:0) 3.7 1.67 (23:00) 0.83 (22:20) 0 0 0 0 0
05-01-2020 11.5 (14:40) 0.1 (00:00) 5.8 3.89 (01:40) 1.39 (06:20) 0 0 0 0 0
04-01-2020 9.8 (15:00) -2.7 (-00:0) 3.6 2.5 (11:00) 0.83 (11:30) 0 0 0 0 0
03-01-2020 8.8 (15:30) -1.5 (-00:0) 3.7 2.22 (21:10) 1.11 (21:20) 0 0 0 0 0
02-01-2020 9.4 (15:00) -1.6 (-00:0) 3.9 3.06 (08:30) 0.56 (02:00) 0 0 0 0 0
01-01-2020 11.6 (15:40) -2.4 (-00:0) 4.6 2.22 (02:30) 0.83 (21:50) 0 0 0 0 0
31-12-2019 8.6 (14:40) -2.6 (-00:0) 3 1.67 (01:40) 0.83 (01:40) 0 0 0 0 0
30-12-2019 -- (--) -- (--) -- -- (--) -- (--) -- 0 0 0 --
29-12-2019 9.4 (14:30) -2.7 (-00:0) 3.3 2.5 (03:10) 0.83 (19:50) 0 0 0 0 0
28-12-2019 10.9 (14:30) -1.1 (-00:0) 4.9 2.5 (00:20) 1.11 (00:20) 0 0 0 0 0
27-12-2019 9.5 (14:20) -1 (-00:0) 4.3 3.89 (22:30) 1.39 (18:20) 0 0 0 0 0
26-12-2019 12.6 (15:30) 2 (00:00) 7.3 3.89 (07:50) 1.39 (08:50) 0 0 0 0 0
25-12-2019 11 (14:40) 1.6 (00:00) 6.3 3.06 (08:10) 0.83 (08:10) 0 0 0 0 0

Gráficas

Temp. máximas Temp. mínimas Temp. medias Precipitaciones Rachas de viento máximas Velocidades máximas media en intervalos de 10 minutos

Datos horarios

Fecha y hora oficial Temperatura (ºC) Velocidad del viento (km/h) Dirección del viento Racha (km/h) Dirección de racha Precipitación (mm) Presión (hPa) Tendencia (hPa) Humedad (%)
2020-01-23 23:00:00 1.8 0 Calma 4 Norte 0 -- -- 100
2020-01-23 22:00:00 1.4 0 Calma 4 Sur 0 -- -- 100
2020-01-23 21:00:00 0.9 0 Calma 3 Norte 0 -- -- 100
2020-01-23 20:00:00 0.6 0 Calma 3 Este 0 -- -- 99
2020-01-23 19:00:00 1.3 0 Calma 4 Este 0 -- -- 98
2020-01-23 18:00:00 2.6 0 Calma 4 Sur 0 -- -- 97
2020-01-23 17:00:00 4.2 2 Sudeste 4 Oeste 0 -- -- 95
2020-01-23 16:00:00 3.9 2 Norte 16 Sudeste 0.8 -- -- 97
2020-01-23 15:00:00 3.9 8 Sur 16 Sur 1 -- -- 94
2020-01-23 14:00:00 4.5 4 Sur 24 Sudoeste 1 -- -- 93
2020-01-23 13:00:00 4.9 3 Nordeste 5 Norte 0.6 -- -- 97
2020-01-23 12:00:00 4.6 2 Sudeste 7 Norte 0.8 -- -- 98
2020-01-23 11:00:00 4 3 Nordeste 8 Norte 0 -- -- 98
2020-01-23 10:00:00 3.5 2 Sudeste 18 Nordeste 0.4 -- -- 97
2020-01-23 09:00:00 3.4 4 Este 9 Norte 3.2 -- -- 99
2020-01-23 08:00:00 2.8 4 Sur 8 Sudeste 5 -- -- 100
2020-01-23 07:00:00 2.5 2 Nordeste 16 Nordeste 9.8 -- -- 100
2020-01-23 06:00:00 2.3 2 Norte 10 Noroeste 4.2 -- -- 100
2020-01-23 05:00:00 1.6 3 Sudeste 7 Norte 1.4 -- -- 100
2020-01-23 04:00:00 1.1 0 Calma 5 Nordeste 1.4 -- -- 100
2020-01-23 03:00:00 0.8 2 Este 5 Nordeste 2.6 -- -- 100
2020-01-23 02:00:00 0.6 0 Calma 5 Sudeste 4.6 -- -- 99
2020-01-23 01:00:00 1.2 2 Este 4 Sudeste 3.4 -- -- 97
2020-01-23 00:00:00 2.5 3 Sudeste 8 Sudoeste 3.4 -- -- 99
2020-01-22 23:00:00 2.8 0 Calma 15 Sudoeste 3.6 -- -- 100
2020-01-22 22:00:00 2.4 3 Sudeste 8 Sur 3.2 -- -- 100
2020-01-22 21:00:00 2.3 0 Calma 5 Sudoeste 4 -- -- 99
2020-01-22 20:00:00 2.4 2 Este 6 Nordeste 3.2 -- -- 98
2020-01-22 19:00:00 2.4 2 Nordeste 5 Sur 3.2 -- -- 98
2020-01-22 18:00:00 3 0 Calma 6 Este 5 -- -- 95
2020-01-22 17:00:00 4 0 Calma 6 Sudeste 4.4 -- -- 94
2020-01-22 16:00:00 5.3 0 Calma 4 Norte 3 -- -- 91
2020-01-22 15:00:00 7 3 Nordeste 12 Norte 0.2 -- -- 86
2020-01-22 14:00:00 7.8 3 Sudoeste 12 Norte 0 -- -- 81
2020-01-22 13:00:00 7.1 2 Noroeste 9 Norte 0 -- -- 83
2020-01-22 12:00:00 6.2 2 Noroeste 12 Noroeste 0 -- -- 84
2020-01-22 11:00:00 4.8 3 Noroeste 14 Norte 0 -- -- 90
2020-01-22 10:00:00 3.6 0 Calma 14 Norte 0 -- -- 94
2020-01-22 09:00:00 3 3 Sudoeste 14 Nordeste 0 -- -- 95
2020-01-22 08:00:00 2.7 4 Norte 17 Sudeste 0 -- -- 95
2020-01-22 07:00:00 2.7 4 Este 9 Norte 0 -- -- 94
2020-01-22 06:00:00 2.7 2 Sudoeste 12 Norte 0 -- -- 95
2020-01-22 05:00:00 2.2 3 Sudoeste 12 Norte 0.4 -- -- 97
2020-01-22 04:00:00 2.2 0 Calma 8 Nordeste 1.4 -- -- 96
2020-01-22 03:00:00 3 0 Calma 12 Sur 5.4 -- -- 96
2020-01-22 02:00:00 3.6 5 Sudeste 9 Sudeste 5 -- -- 96
2020-01-22 01:00:00 4.1 0 Calma 12 Norte 0 -- -- 83
2020-01-22 00:00:00 3.3 0 Calma 6 Este 0 -- -- 86
2020-01-21 23:00:00 2.6 0 Calma 5 Norte 0 -- -- 88
2020-01-21 22:00:00 2.8 2 Este 6 Este 0 -- -- 88
2020-01-21 21:00:00 3.4 2 Nordeste 5 Sur 0 -- -- 87
2020-01-21 20:00:00 4.1 2 Sur 5 Norte 0 -- -- 86
2020-01-21 19:00:00 5 0 Calma 7 Sudeste 0 -- -- 85
2020-01-21 18:00:00 6.1 2 Nordeste 4 Nordeste 0 -- -- 82
2020-01-21 17:00:00 7.4 2 Este 6 Norte 0 -- -- 80
2020-01-21 16:00:00 8.4 2 Este 17 Noroeste 0 -- -- 77
2020-01-21 15:00:00 7.6 3 Sur 14 Norte 0.2 -- -- 84
2020-01-21 14:00:00 6.7 4 Nordeste 12 Norte 0.2 -- -- 81
2020-01-21 13:00:00 6.7 2 Sudeste 6 Sur 0 -- -- 68
2020-01-21 12:00:00 6.2 2 Nordeste 11 Noroeste 0 -- -- 69
2020-01-21 11:00:00 5.5 2 Norte 6 Nordeste 0 -- -- 70
2020-01-21 10:00:00 4.4 2 Norte 7 Sudeste 0 -- -- 74
2020-01-21 09:00:00 4 3 Nordeste 13 Nordeste 0 -- -- 71
2020-01-21 08:00:00 4.1 4 Este 18 Norte 0 -- -- 70
2020-01-21 07:00:00 4.1 4 Norte 12 Norte 0 -- -- 69
2020-01-21 06:00:00 3.9 2 Sudeste 8 Norte 0 -- -- 66
2020-01-21 05:00:00 3.6 0 Calma 6 Noroeste 0 -- -- 65
2020-01-21 04:00:00 3.2 0 Calma 9 Norte 0 -- -- 63
2020-01-21 03:00:00 2.9 2 Noroeste 8 Nordeste 0 -- -- 64
2020-01-21 02:00:00 2.8 0 Calma 5 Sudeste 0 -- -- 64
2020-01-21 01:00:00 1.9 0 Calma 4 Sur 0 -- -- 70
2020-01-21 00:00:00 0.9 0 Calma 3 Este 0 -- -- 76
2020-01-20 23:00:00 0.6 0 Calma 4 Norte 0 -- -- 72
2020-01-20 22:00:00 1 0 Calma 5 Sudoeste 0 -- -- 68
2020-01-20 21:00:00 1 0 Calma 5 Sudeste 0 -- -- 70
2020-01-20 20:00:00 0.9 2 Sur 4 Sudoeste 0 -- -- 66
2020-01-20 19:00:00 1.8 0 Calma 4 Este 0 -- -- 62
2020-01-20 18:00:00 3.4 0 Calma 4 Norte 0 -- -- 54
2020-01-20 17:00:00 6.8 2 Sudoeste 5 Sudoeste 0 -- -- 40
2020-01-20 16:00:00 6 0 Calma 13 Sudoeste 0 -- -- 40
2020-01-20 15:00:00 7.2 7 Sur 16 Sur 0 -- -- 29
2020-01-20 14:00:00 8 5 Sudoeste 11 Sudoeste 0 -- -- 29
2020-01-20 13:00:00 4.7 3 Sudoeste 5 Sudoeste 0 -- -- 35
2020-01-20 12:00:00 2.7 2 Sudoeste 4 Sudoeste 0 -- -- 41
2020-01-20 11:00:00 0.8 2 Nordeste 4 Sudeste 0 -- -- 45
2020-01-20 10:00:00 -1.1 3 Este 5 Norte 0 -- -- 56
2020-01-20 09:00:00 -2.3 2 Este 8 Sudeste 0 -- -- 56
2020-01-20 08:00:00 -1.8 0 Calma 6 Sudeste 0 -- -- 46
2020-01-20 07:00:00 0.6 2 Este 7 Sudeste 0 -- -- 32
2020-01-20 06:00:00 2.1 3 Nordeste 10 Sudeste 0 -- -- 29
2020-01-20 05:00:00 3.2 4 Sudeste 18 Norte 0 -- -- 22
2020-01-20 04:00:00 3.3 5 Nordeste 24 Norte 0 -- -- 23
2020-01-20 03:00:00 3.3 6 Nordeste 34 Sudeste 0 -- -- 23
2020-01-20 02:00:00 2.4 3 Nordeste 27 Norte 0 -- -- 31
2020-01-20 01:00:00 3.1 7 Este 30 Norte 0 -- -- 30
2020-01-20 00:00:00 2.9 11 Norte 33 Norte 0 -- -- 35
2020-01-19 23:00:00 2.8 8 Norte 32 Norte 0 -- -- 37
2020-01-19 22:00:00 2.5 6 Oeste 28 Norte 0 -- -- 40
2020-01-19 21:00:00 2.9 10 Noroeste 29 Noroeste 0 -- -- 38
2020-01-19 20:00:00 3.3 6 Nordeste 28 Noroeste 0 -- -- 35
2020-01-19 19:00:00 4 10 Noroeste 27 Noroeste 0 -- -- 33
2020-01-19 18:00:00 4.7 11 Norte 25 Norte 0 -- -- 30
2020-01-19 17:00:00 6.4 12 Noroeste 49 Oeste 0 -- -- 26
2020-01-19 16:00:00 7.7 8 Norte 33 Noroeste 0 -- -- 26
2020-01-19 15:00:00 7.3 8 Norte 24 Norte 0 -- -- 30
2020-01-19 14:00:00 8.1 8 Nordeste 28 Noroeste 0 -- -- 24
2020-01-19 13:00:00 7.9 8 Nordeste 31 Norte 0 -- -- 29
2020-01-19 12:00:00 7.5 4 Nordeste 35 Nordeste 0 -- -- 35
2020-01-19 11:00:00 6.6 8 Nordeste 28 Norte 0 -- -- 42
2020-01-19 10:00:00 6.4 7 Este 34 Nordeste 0 -- -- 40
2020-01-19 09:00:00 5.5 9 Norte 24 Norte 0 -- -- 50
2020-01-19 08:00:00 2.7 3 Nordeste 9 Norte 0 -- -- 93
2020-01-19 07:00:00 2.3 4 Nordeste 9 Este 0 -- -- 97
2020-01-19 06:00:00 2.1 2 Este 5 Nordeste 0 -- -- 97
2020-01-19 05:00:00 2.4 0 Calma 20 Norte 0.8 -- -- 95
2020-01-19 04:00:00 2.5 8 Nordeste 19 Nordeste 0.2 -- -- 92
2020-01-19 03:00:00 3.1 5 Este 21 Nordeste 0 -- -- 86
2020-01-19 02:00:00 3.9 4 Nordeste 12 Norte 0 -- -- 73
2020-01-19 01:00:00 3.5 2 Nordeste 5 Norte 0 -- -- 72
2020-01-19 00:00:00 3.3 0 Calma 4 Sudeste 0 -- -- 76
2020-01-18 23:00:00 3.2 0 Calma 3 Nordeste 0 -- -- 75
2020-01-18 22:00:00 3.4 0 Calma 4 Este 0 -- -- 75
2020-01-18 21:00:00 3.4 0 Calma 3 Nordeste 0 -- -- 74
2020-01-18 20:00:00 3.9 0 Calma 2 Este 0 -- -- 75
2020-01-18 19:00:00 4.4 0 Calma 4 Nordeste 0 -- -- 70
2020-01-18 18:00:00 5.7 0 Calma 6 Sudeste 0 -- -- 62
2020-01-18 17:00:00 7.8 4 Sur 9 Sur 0 -- -- 53
2020-01-18 16:00:00 8.1 0 Calma 6 Sur 0 -- -- 57
2020-01-18 15:00:00 9.3 3 Este 20 Sudeste 0 -- -- 49
2020-01-18 14:00:00 8.3 6 Sur 15 Sur 0 -- -- 49
2020-01-18 13:00:00 5.7 2 Norte 9 Norte 0 -- -- 51
2020-01-18 12:00:00 3.5 3 Norte 8 Nordeste 0 -- -- 68
2020-01-18 11:00:00 1.2 0 Calma 4 Noroeste 0 -- -- 77
2020-01-18 10:00:00 0 2 Sudeste 5 Sur 0 -- -- 79
2020-01-18 09:00:00 -0.7 0 Calma 7 Este 0 -- -- 82
2020-01-18 08:00:00 -0.8 0 Calma 6 Sur 0 -- -- 82
2020-01-18 07:00:00 -1.1 3 Este 12 Sudoeste 0 -- -- 83
2020-01-18 06:00:00 -1.7 2 Este 5 Sudeste 0 -- -- 87
2020-01-18 05:00:00 -2.4 0 Calma 6 Sudeste 0 -- -- 88
2020-01-18 04:00:00 -2.5 0 Calma 8 Nordeste 0 -- -- 88
2020-01-18 03:00:00 -2.3 0 Calma 3 Nordeste 0 -- -- 89
2020-01-18 02:00:00 -2.1 0 Calma 4 Sur 0 -- -- 89
2020-01-18 01:00:00 -1.9 2 Este 6 Sur 0 -- -- 90
2020-01-18 00:00:00 -1.3 0 Calma 7 Sudeste 0 -- -- 90
2020-01-17 23:00:00 -0.5 3 Sur 10 Sudoeste 0 -- -- 88
2020-01-17 22:00:00 -0.3 3 Sudeste 9 Noroeste 0 -- -- 90
2020-01-17 21:00:00 0.5 3 Sur 10 Sudeste 0 -- -- 89
2020-01-17 20:00:00 1.5 2 Sur 6 Sudeste 0 -- -- 84
2020-01-17 19:00:00 2.3 3 Este 9 Sudeste 0 -- -- 86
2020-01-17 18:00:00 3.9 3 Este 9 Este 0 -- -- 84
2020-01-17 17:00:00 7.7 2 Este 17 Sudoeste 0 -- -- 76
2020-01-17 16:00:00 9.6 3 Sur 20 Sur 0 -- -- 70
2020-01-17 15:00:00 9.3 5 Sudoeste 13 Sudoeste 0 -- -- 67
2020-01-17 14:00:00 6.6 2 Sudeste 21 Sur 2.2 -- -- 94
2020-01-17 13:00:00 9.7 8 Sur 27 Sur 0.2 -- -- 62
2020-01-17 12:00:00 8.8 10 Sur 26 Sudoeste 0 -- -- 68
2020-01-17 11:00:00 3.5 0 Calma 5 Norte 0 -- -- 100
2020-01-17 10:00:00 2.9 2 Sudeste 6 Sudeste 0 -- -- 100
2020-01-17 09:00:00 2.2 3 Sudeste 6 Sudeste 0 -- -- 98
2020-01-17 08:00:00 2.5 3 Sudoeste 6 Sudoeste 0 -- -- 99
2020-01-17 07:00:00 2.7 0 Calma 4 Sudeste 0 -- -- 98
2020-01-17 06:00:00 2.8 2 Este 4 Este 0 -- -- 97
2020-01-17 05:00:00 3.1 0 Calma 9 Sudoeste 0.2 -- -- 96
2020-01-17 04:00:00 3 4 Sur 8 Sudoeste 0 -- -- 90
2020-01-17 03:00:00 3.1 0 Calma 5 Sudoeste 0 -- -- 89
2020-01-17 02:00:00 2.9 0 Calma 7 Sudeste 0 -- -- 90
2020-01-17 01:00:00 3.1 2 Nordeste 5 Sur 0 -- -- 87
2020-01-17 00:00:00 3.7 3 Nordeste 5 Sudeste 0 -- -- 86
2020-01-16 23:00:00 4.4 0 Calma 7 Sudeste 0 -- -- 83
2020-01-16 22:00:00 4.6 0 Calma 6 Nordeste 0 -- -- 82
2020-01-16 21:00:00 4.3 2 Este 4 Norte 0 -- -- 84
2020-01-16 20:00:00 3.7 0 Calma 4 Sur 0 -- -- 87
2020-01-16 19:00:00 4.2 0 Calma 4 Norte 0 -- -- 83
2020-01-16 18:00:00 6.6 0 Calma 3 Sur 0 -- -- 75
2020-01-16 17:00:00 10 2 Sur 5 Sudeste 0 -- -- 64
2020-01-16 16:00:00 10.9 0 Calma 5 Este 0 -- -- 61
2020-01-16 15:00:00 11.3 0 Calma 4 Norte 0 -- -- 59
2020-01-16 14:00:00 10.7 0 Calma 2 Sudoeste 0 -- -- 57
2020-01-16 13:00:00 5.9 0 Calma 4 Sudoeste 0 -- -- 73
2020-01-16 12:00:00 1.5 0 Calma 5 Sudeste 0 -- -- 88
2020-01-16 11:00:00 -1.1 2 Sur 4 Este 0 -- -- 92
2020-01-16 10:00:00 -1.5 2 Norte 5 Norte 0 -- -- 92
2020-01-16 09:00:00 -1.5 0 Calma 5 Sudoeste 0 -- -- 92
2020-01-16 08:00:00 -1.6 2 Sudeste 6 Nordeste 0 -- -- 93
2020-01-16 07:00:00 -1.4 0 Calma 7 Norte 0 -- -- 92
2020-01-16 06:00:00 -1.2 0 Calma 4 Norte 0 -- -- 93
2020-01-16 05:00:00 -0.9 0 Calma 4 Norte 0 -- -- 91
2020-01-16 04:00:00 -0.7 0 Calma 4 Este 0 -- -- 90
2020-01-16 03:00:00 -0.4 0 Calma 4 Nordeste 0 -- -- 91
2020-01-16 02:00:00 -0.2 0 Calma 4 Norte 0 -- -- 91
2020-01-16 01:00:00 0.1 0 Calma 4 Nordeste 0 -- -- 91
2020-01-16 00:00:00 0 0 Calma 4 Norte 0 -- -- 91
2020-01-15 23:00:00 0.4 2 Sur 4 Sudeste 0 -- -- 90
2020-01-15 22:00:00 0.8 0 Calma 3 Este 0 -- -- 88
2020-01-15 21:00:00 1.5 0 Calma 3 Norte 0 -- -- 85
2020-01-15 20:00:00 2.4 0 Calma 5 Sur 0 -- -- 84
2020-01-15 19:00:00 3.6 0 Calma 6 Sudoeste 0 -- -- 78
2020-01-15 18:00:00 6 0 Calma 10 Este 0 -- -- 68
2020-01-15 17:00:00 8.9 0 Calma 6 Sudeste 0 -- -- 59
2020-01-15 16:00:00 10.1 0 Calma 5 Sudeste 0 -- -- 56
2020-01-15 15:00:00 10.5 0 Calma 4 Sur 0 -- -- 52
2020-01-15 14:00:00 8.2 4 Nordeste 6 Norte 0 -- -- 48
2020-01-15 13:00:00 4.1 0 Calma 4 Sur 0 -- -- 62
2020-01-15 12:00:00 -0.4 2 Sudeste 5 Sudeste 0 -- -- 75
2020-01-15 11:00:00 -2.8 2 Sur 5 Norte 0 -- -- 83
2020-01-15 10:00:00 -3.1 0 Calma 4 Sudoeste 0 -- -- 81
2020-01-15 09:00:00 -3.2 0 Calma 10 Norte 0 -- -- 81
2020-01-15 08:00:00 -3.3 0 Calma 5 Noroeste 0 -- -- 81
2020-01-15 07:00:00 -3.1 0 Calma 4 Nordeste 0 -- -- 80
2020-01-15 06:00:00 -3 0 Calma 6 Noroeste 0 -- -- 80
2020-01-15 05:00:00 -2.3 0 Calma 7 Noroeste 0 -- -- 77
2020-01-15 04:00:00 -2.3 2 Sudoeste 10 Norte 0 -- -- 77
2020-01-15 03:00:00 -1.9 2 Sudeste 6 Noroeste 0 -- -- 76
2020-01-15 02:00:00 -1.9 0 Calma 6 Nordeste 0 -- -- 77
2020-01-15 01:00:00 -1.3 0 Calma 5 Norte 0 -- -- 75
2020-01-15 00:00:00 -1.4 0 Calma 4 Nordeste 0 -- -- 76
2020-01-14 23:00:00 -1.5 0 Calma 3 Nordeste 0 -- -- 78
2020-01-14 22:00:00 -1.3 0 Calma 3 Sudeste 0 -- -- 78
2020-01-14 21:00:00 -1 0 Calma 2 Norte 0 -- -- 77
2020-01-14 20:00:00 -0.2 0 Calma 3 Sudeste 0 -- -- 73
2020-01-14 19:00:00 1.3 0 Calma 3 Este 0 -- -- 72
2020-01-14 18:00:00 3.8 0 Calma 5 Sur 0 -- -- 64
2020-01-14 17:00:00 9.6 2 Sudoeste 11 Sur 0 -- -- 47
2020-01-14 16:00:00 10.6 6 Sur 13 Sudoeste 0 -- -- 42
2020-01-14 15:00:00 10.2 3 Sur 13 Sur 0 -- -- 43
2020-01-14 14:00:00 9.2 3 Sur 8 Sudoeste 0 -- -- 43
2020-01-14 13:00:00 4.4 0 Calma 4 Nordeste 0 -- -- 49
2020-01-14 12:00:00 -0.2 0 Calma 3 Sudeste 0 -- -- 74
2020-01-14 11:00:00 -1.8 2 Este 8 Sur 0 -- -- 74
2020-01-14 10:00:00 -2.1 0 Calma 5 Noroeste 0 -- -- 75
2020-01-14 09:00:00 -2.9 2 Sudeste 6 Sur 0 -- -- 77
2020-01-14 08:00:00 -3.2 0 Calma 10 Nordeste 0 -- -- 77
2020-01-14 07:00:00 -3.3 2 Sudoeste 8 Noroeste 0 -- -- 77
2020-01-14 06:00:00 -3.2 0 Calma 9 Norte 0 -- -- 78
2020-01-14 05:00:00 -3 0 Calma 6 Norte 0 -- -- 79
2020-01-14 04:00:00 -2.6 2 Este 5 Oeste 0 -- -- 78
2020-01-14 03:00:00 -2.3 0 Calma 6 Nordeste 0 -- -- 77
2020-01-14 02:00:00 -2.3 2 Norte 5 Este 0 -- -- 81
2020-01-14 01:00:00 -1.9 0 Calma 4 Este 0 -- -- 79
2020-01-14 00:00:00 -1.7 0 Calma 6 Norte 0 -- -- 79
2020-01-13 23:00:00 -1.2 2 Este 4 Nordeste 0 -- -- 77
2020-01-13 22:00:00 -0.8 0 Calma 4 Sur 0 -- -- 79
2020-01-13 21:00:00 -0.8 0 Calma 4 Norte 0 -- -- 78
2020-01-13 20:00:00 -0.2 0 Calma 4 Nordeste 0 -- -- 80
2020-01-13 19:00:00 1.2 2 Este 4 Este 0 -- -- 73
2020-01-13 18:00:00 3.5 0 Calma 4 Sur 0 -- -- 66
2020-01-13 17:00:00 6.7 0 Calma 4 Sur 0 -- -- 56
2020-01-13 16:00:00 9.3 0 Calma 12 Sur 0 -- -- 45
2020-01-13 15:00:00 9.3 0 Calma 4 Noroeste 0 -- -- 47
2020-01-13 14:00:00 7.9 0 Calma 5 Sudoeste 0 -- -- 39
2020-01-13 13:00:00 3.7 0 Calma 4 Norte 0 -- -- 50
2020-01-13 12:00:00 0.8 0 Calma 5 Este 0 -- -- 62
2020-01-13 11:00:00 -1.8 2 Sudoeste 8 Norte 0 -- -- 72
2020-01-13 10:00:00 -3.4 0 Calma 5 Nordeste 0 -- -- 77
2020-01-13 09:00:00 -3.8 0 Calma 8 Nordeste 0 -- -- 76
2020-01-13 08:00:00 -3.9 0 Calma 7 Noroeste 0 -- -- 77
2020-01-13 07:00:00 -3.5 0 Calma 10 Norte 0 -- -- 76
2020-01-13 06:00:00 -3.1 2 Este 7 Este 0 -- -- 75
2020-01-13 05:00:00 -2.8 0 Calma 5 Sur 0 -- -- 74
2020-01-13 04:00:00 -2.5 0 Calma 4 Sur 0 -- -- 73
2020-01-13 03:00:00 -2 0 Calma 5 Este 0 -- -- 72
2020-01-13 02:00:00 -1.6 0 Calma 4 Sudeste 0 -- -- 72
2020-01-13 01:00:00 -2 0 Calma 6 Sur 0 -- -- 74
2020-01-13 00:00:00 -1.4 0 Calma 4 Sudeste 0 -- -- 72
2020-01-12 23:00:00 -1.1 2 Este 4 Nordeste 0 -- -- 72
2020-01-12 22:00:00 -0.8 0 Calma 4 Norte 0 -- -- 73
2020-01-12 21:00:00 -0.9 0 Calma 4 Este 0 -- -- 74
2020-01-12 20:00:00 -0.3 2 Norte 3 Norte 0 -- -- 72
2020-01-12 19:00:00 1 0 Calma 3 Sur 0 -- -- 69
2020-01-12 18:00:00 3.6 0 Calma 4 Sur 0 -- -- 62
2020-01-12 17:00:00 7.2 0 Calma 9 Sur 0 -- -- 52
2020-01-12 16:00:00 10.7 6 Sur 15 Sur 0 -- -- 37
2020-01-12 15:00:00 8.8 3 Sudeste 9 Sudeste 0 -- -- 44
2020-01-12 14:00:00 8.2 2 Nordeste 3 Norte 0 -- -- 45
2020-01-12 13:00:00 3.6 0 Calma 3 Norte 0 -- -- 49
2020-01-12 12:00:00 -0.9 2 Sudeste 4 Sudeste 0 -- -- 64
2020-01-12 11:00:00 -3.3 0 Calma 6 Noroeste 0 -- -- 68
2020-01-12 10:00:00 -3.9 0 Calma 5 Este 0 -- -- 72
2020-01-12 09:00:00 -4.1 0 Calma 5 Sur 0 -- -- 72
2020-01-12 08:00:00 -4.1 2 Sur 7 Este 0 -- -- 72
2020-01-12 07:00:00 -3.7 0 Calma 4 Sur 0 -- -- 72
2020-01-12 06:00:00 -3.5 0 Calma 6 Nordeste 0 -- -- 71
2020-01-12 05:00:00 -3 2 Sudoeste 4 Sudoeste 0 -- -- 69
2020-01-12 04:00:00 -2.6 0 Calma 6 Norte 0 -- -- 68
2020-01-12 03:00:00 -2.4 0 Calma 6 Norte 0 -- -- 68
2020-01-12 02:00:00 -2 2 Nordeste 8 Norte 0 -- -- 68
2020-01-12 01:00:00 -1.6 0 Calma 6 Este 0 -- -- 67
2020-01-12 00:00:00 -1.6 0 Calma 6 Norte 0 -- -- 68
2020-01-11 23:00:00 -2.1 0 Calma 4 Nordeste 0 -- -- 73
2020-01-11 22:00:00 -2.3 0 Calma 3 Este 0 -- -- 74
2020-01-11 21:00:00 -1.7 0 Calma 3 Sur 0 -- -- 75
2020-01-11 20:00:00 -0.7 0 Calma 3 Sur 0 -- -- 70
2020-01-11 19:00:00 0.7 0 Calma 4 Este 0 -- -- 66
2020-01-11 18:00:00 2.7 0 Calma 3 Norte 0 -- -- 61
2020-01-11 17:00:00 6.3 0 Calma 4 Sudoeste 0 -- -- 53
2020-01-11 16:00:00 8.6 0 Calma 7 Sudoeste 0 -- -- 46
2020-01-11 15:00:00 9.6 2 Sudeste 9 Sur 0 -- -- 41
2020-01-11 14:00:00 8.5 0 Calma 7 Sur 0 -- -- 36
2020-01-11 13:00:00 4.3 0 Calma 4 Norte 0 -- -- 49
2020-01-11 12:00:00 -0.1 0 Calma 5 Este 0 -- -- 60
2020-01-11 11:00:00 -2.3 0 Calma 4 Nordeste 0 -- -- 68
2020-01-11 10:00:00 -2.3 2 Sur 12 Norte 0 -- -- 65
2020-01-11 09:00:00 -2.5 2 Sur 6 Sudeste 0 -- -- 66
2020-01-11 08:00:00 -3.1 2 Nordeste 6 Norte 0 -- -- 72
2020-01-11 07:00:00 -3.3 2 Nordeste 6 Sudeste 0 -- -- 72
2020-01-11 06:00:00 -3.5 0 Calma 6 Sudeste 0 -- -- 81
2020-01-11 05:00:00 -3.8 2 Sudeste 6 Sudeste 0 -- -- 88
2020-01-11 04:00:00 -3.6 3 Sudoeste 9 Sudeste 0 -- -- 90
2020-01-11 03:00:00 -3.2 3 Nordeste 7 Norte 0 -- -- 92
2020-01-11 02:00:00 -2.7 3 Este 8 Sudeste 0 -- -- 93
2020-01-11 01:00:00 -2.3 4 Sudeste 8 Sudeste 0 -- -- 95
2020-01-11 00:00:00 -2.1 3 Nordeste 8 Sur 0 -- -- 95
2020-01-10 23:00:00 -1.5 3 Sur 6 Sudeste 0 -- -- 93
2020-01-10 22:00:00 -0.7 3 Este 7 Oeste 0 -- -- 92
2020-01-10 21:00:00 0.4 3 Sudeste 10 Sudeste 0 -- -- 90
2020-01-10 20:00:00 1.6 3 Este 6 Norte 0 -- -- 85
2020-01-10 19:00:00 3.5 2 Sudeste 9 Sur 0 -- -- 79
2020-01-10 18:00:00 6.6 3 Este 18 Sur 0 -- -- 71
2020-01-10 17:00:00 8.9 4 Oeste 22 Sur 0 -- -- 65
2020-01-10 16:00:00 10.3 10 Sudoeste 24 Oeste 0 -- -- 58
2020-01-10 15:00:00 10.5 8 Sur 20 Sudoeste 0 -- -- 58
2020-01-10 14:00:00 10.1 4 Sur 18 Sur 0 -- -- 59
2020-01-10 13:00:00 7.7 5 Sudeste 19 Sudeste 0 -- -- 67
2020-01-10 12:00:00 3.4 3 Este 9 Nordeste 0 -- -- 84
2020-01-10 11:00:00 2 2 Nordeste 6 Sudeste 0 -- -- 92
2020-01-10 10:00:00 2.4 3 Norte 8 Sudeste 0 -- -- 89
2020-01-10 09:00:00 4.1 0 Calma 9 Nordeste 0 -- -- 81
2020-01-10 08:00:00 6.5 2 Sudoeste 15 Nordeste 0 -- -- 67
2020-01-10 07:00:00 6.9 2 Nordeste 15 Sudoeste 0 -- -- 63
2020-01-10 06:00:00 6.5 6 Nordeste 17 Norte 0 -- -- 66
2020-01-10 05:00:00 3.1 4 Sudoeste 8 Sudoeste 0 -- -- 92
2020-01-10 04:00:00 2.3 0 Calma 6 Nordeste 0 -- -- 94
2020-01-10 03:00:00 2.6 0 Calma 4 Este 0 -- -- 93
2020-01-10 02:00:00 2.9 0 Calma 4 Sur 0 -- -- 91
2020-01-10 01:00:00 3.5 3 Este 8 Sudoeste 0 -- -- 89
2020-01-10 00:00:00 3.8 0 Calma 4 Sur 0 -- -- 88
2020-01-09 23:00:00 3.9 0 Calma 3 Norte 0 -- -- 86
2020-01-09 22:00:00 4.4 2 Sudoeste 4 Sudoeste 0 -- -- 86
2020-01-09 21:00:00 4.3 2 Sudeste 4 Sur 0 -- -- 85
2020-01-09 20:00:00 4.6 2 Sur 5 Norte 0 -- -- 82
2020-01-09 19:00:00 5.1 4 Sur 8 Sudoeste 0 -- -- 79
2020-01-09 18:00:00 6.8 2 Sur 14 Sudoeste 0 -- -- 72
2020-01-09 17:00:00 9.9 3 Sur 8 Sur 0 -- -- 58
2020-01-09 16:00:00 10.1 3 Sudeste 13 Sudoeste 0 -- -- 60
2020-01-09 15:00:00 10.8 4 Sudeste 12 Sudeste 0 -- -- 60
2020-01-09 14:00:00 9.7 2 Nordeste 6 Nordeste 0 -- -- 67
2020-01-09 13:00:00 5.4 0 Calma 3 Norte 0 -- -- 78
2020-01-09 12:00:00 1.5 0 Calma 4 Sur 0 -- -- 92
2020-01-09 11:00:00 0 0 Calma 4 Este 0 -- -- 92
2020-01-09 10:00:00 -0.6 0 Calma 8 Oeste 0 -- -- 94
2020-01-09 09:00:00 -0.7 2 Nordeste 6 Norte 0 -- -- 93
2020-01-09 08:00:00 -1.1 2 Sur 5 Norte 0 -- -- 94
2020-01-09 07:00:00 -0.9 0 Calma 6 Este 0 -- -- 94
2020-01-09 06:00:00 -0.8 0 Calma 5 Noroeste 0 -- -- 94
2020-01-09 05:00:00 -0.8 0 Calma 5 Nordeste 0 -- -- 92
2020-01-09 04:00:00 -0.6 0 Calma 4 Este 0 -- -- 93
2020-01-09 03:00:00 -0.2 0 Calma 4 Norte 0 -- -- 91
2020-01-09 02:00:00 0.3 0 Calma 4 Nordeste 0 -- -- 91
2020-01-09 01:00:00 0.5 0 Calma 3 Sudeste 0 -- -- 90
2020-01-09 00:00:00 0.8 0 Calma 4 Sudoeste 0 -- -- 90
2020-01-08 23:00:00 1.4 0 Calma 2 Norte 0 -- -- 88
2020-01-08 22:00:00 1.4 0 Calma 3 Sur 0 -- -- 88
2020-01-08 21:00:00 2.1 0 Calma 3 Sur 0 -- -- 88
2020-01-08 20:00:00 3 0 Calma 2 Nordeste 0 -- -- 83
2020-01-08 19:00:00 4.2 0 Calma 3 Este 0 -- -- 79
2020-01-08 18:00:00 6.8 0 Calma 3 Sudoeste 0 -- -- 71
2020-01-08 17:00:00 11 3 Sur 12 Sudeste 0 -- -- 57
2020-01-08 16:00:00 12.8 5 Sur 14 Sudeste 0 -- -- 51
2020-01-08 15:00:00 12 2 Sudeste 6 Nordeste 0 -- -- 51
2020-01-08 14:00:00 11.7 2 Este 9 Sudeste 0 -- -- 57
2020-01-08 13:00:00 7.9 2 Este 6 Nordeste 0 -- -- 69
2020-01-08 12:00:00 2.2 0 Calma 4 Norte 0 -- -- 91
2020-01-08 11:00:00 0.5 0 Calma 4 Sur 0 -- -- 90
2020-01-08 10:00:00 0.5 0 Calma 4 Noroeste 0 -- -- 89
2020-01-08 09:00:00 0.3 0 Calma 8 Norte 0 -- -- 88
2020-01-08 08:00:00 0.6 0 Calma 6 Sudoeste 0 -- -- 87
2020-01-08 07:00:00 0.6 0 Calma 8 Este 0 -- -- 88
2020-01-08 06:00:00 0.6 0 Calma 5 Sudeste 0 -- -- 87
2020-01-08 05:00:00 0 0 Calma 3 Nordeste 0 -- -- 92
2020-01-08 04:00:00 -0.3 2 Nordeste 5 Norte 0 -- -- 92
2020-01-08 03:00:00 -0.3 0 Calma 6 Sur 0 -- -- 92
2020-01-08 02:00:00 -0.5 2 Nordeste 5 Sur 0 -- -- 92
2020-01-08 01:00:00 -0.5 0 Calma 4 Sur 0 -- -- 92
2020-01-08 00:00:00 -0.4 2 Sur 4 Noroeste 0 -- -- 92
2020-01-07 23:00:00 -0.1 0 Calma 4 Sur 0 -- -- 91
2020-01-07 22:00:00 0.5 0 Calma 5 Norte 0 -- -- 88
2020-01-07 21:00:00 1.3 2 Este 6 Norte 0 -- -- 88
2020-01-07 20:00:00 2 3 Nordeste 6 Norte 0 -- -- 84
2020-01-07 19:00:00 3 2 Sudeste 5 Sur 0 -- -- 81
2020-01-07 18:00:00 4.8 2 Nordeste 5 Norte 0 -- -- 74
2020-01-07 17:00:00 7.7 2 Sudoeste 5 Sudeste 0 -- -- 64
2020-01-07 16:00:00 9.7 2 Sur 4 Sur 0 -- -- 58
2020-01-07 15:00:00 10.1 0 Calma 3 Sudeste 0 -- -- 55
2020-01-07 14:00:00 9.6 0 Calma 3 Sur 0 -- -- 54
2020-01-07 13:00:00 5 0 Calma 4 Sudoeste 0 -- -- 64
2020-01-07 12:00:00 1 0 Calma 4 Sur 0 -- -- 81
2020-01-07 11:00:00 -1.2 0 Calma 4 Sudoeste 0 -- -- 85
2020-01-07 10:00:00 -1.6 0 Calma 5 Sur 0 -- -- 84
2020-01-07 09:00:00 -2 2 Este 7 Sudeste 0 -- -- 85
2020-01-07 08:00:00 -2.1 2 Nordeste 6 Norte 0 -- -- 86
2020-01-07 07:00:00 -2.4 0 Calma 5 Norte 0 -- -- 89
2020-01-07 06:00:00 -2.2 0 Calma 4 Sur 0 -- -- 88
2020-01-07 05:00:00 -2 0 Calma 4 Sur 0 -- -- 88
2020-01-07 04:00:00 -1.8 2 Este 4 Norte 0 -- -- 89
2020-01-07 03:00:00 -1.6 2 Sur 5 Norte 0 -- -- 90
2020-01-07 02:00:00 -1.1 2 Sur 5 Noroeste 0 -- -- 88
2020-01-07 01:00:00 -0.9 0 Calma 5 Sudeste 0 -- -- 88
2020-01-07 00:00:00 -0.5 2 Este 5 Nordeste 0 -- -- 87
2020-01-06 23:00:00 -0.7 3 Sur 6 Norte 0 -- -- 90
2020-01-06 22:00:00 -0.3 0 Calma 4 Sur 0 -- -- 88
2020-01-06 21:00:00 0.3 0 Calma 4 Sur 0 -- -- 87
2020-01-06 20:00:00 0.9 0 Calma 4 Sudeste 0 -- -- 85
2020-01-06 19:00:00 2.3 2 Sur 3 Sur 0 -- -- 80
2020-01-06 18:00:00 4 0 Calma 3 Norte 0 -- -- 75
2020-01-06 17:00:00 7.1 0 Calma 4 Sudoeste 0 -- -- 64
2020-01-06 16:00:00 9.1 0 Calma 5 Sudeste 0 -- -- 58
2020-01-06 15:00:00 9.2 0 Calma 3 Sur 0 -- -- 55
2020-01-06 14:00:00 8.8 0 Calma 3 Sur 0 -- -- 57
2020-01-06 13:00:00 4.4 0 Calma 2 Norte 0 -- -- 67
2020-01-06 12:00:00 0.1 0 Calma 3 Norte 0 -- -- 84
2020-01-06 11:00:00 -2.1 0 Calma 3 Sur 0 -- -- 89
2020-01-06 10:00:00 -2.1 0 Calma 3 Nordeste 0 -- -- 88